createdAt,value
2018-12-04T00:01:56.260Z,99.90
2018-12-04T00:04:24.297Z,99.90
2018-12-04T00:06:52.343Z,99.90
2018-12-04T00:09:20.376Z,99.90
2018-12-04T00:11:48.404Z,99.90
2018-12-04T00:14:16.432Z,99.90
2018-12-04T00:16:44.472Z,99.90
2018-12-04T00:19:12.504Z,99.90
2018-12-04T00:21:40.542Z,99.90
2018-12-04T00:24:08.926Z,99.90
2018-12-04T00:26:36.977Z,99.90
2018-12-04T00:29:05.013Z,99.90
2018-12-04T00:31:33.065Z,99.90
2018-12-04T00:34:01.093Z,99.90
2018-12-04T00:36:29.224Z,99.80
2018-12-04T00:38:57.269Z,99.80
2018-12-04T00:41:25.314Z,99.80
2018-12-04T00:43:53.335Z,99.80
2018-12-04T00:46:21.386Z,99.50
2018-12-04T00:48:49.417Z,99.30
2018-12-04T00:51:17.465Z,99.20
2018-12-04T00:53:45.505Z,99.10
2018-12-04T00:56:13.545Z,98.90
2018-12-04T00:58:41.585Z,98.90
2018-12-04T01:01:09.620Z,98.60
2018-12-04T01:03:37.664Z,99.00
2018-12-04T01:06:05.777Z,99.00
2018-12-04T01:08:33.833Z,99.30
2018-12-04T01:11:01.880Z,99.20
2018-12-04T01:13:29.940Z,99.40
2018-12-04T01:15:57.998Z,99.60
2018-12-04T01:18:26.030Z,98.60
2018-12-04T01:20:54.116Z,98.40
2018-12-04T01:23:22.148Z,97.90
2018-12-04T01:25:50.226Z,97.70
2018-12-04T01:28:18.321Z,98.00
2018-12-04T01:30:46.368Z,98.40
2018-12-04T01:33:14.400Z,99.40
2018-12-04T01:35:42.449Z,99.80
2018-12-04T01:38:10.484Z,99.90
2018-12-04T01:40:38.535Z,99.90
2018-12-04T01:43:06.572Z,99.90
2018-12-04T01:45:34.612Z,99.90
2018-12-04T01:48:02.659Z,99.90
2018-12-04T01:50:30.693Z,99.90
2018-12-04T01:52:58.768Z,99.90
2018-12-04T01:55:26.780Z,99.90
2018-12-04T01:57:54.829Z,99.90
2018-12-04T02:00:22.852Z,99.90
2018-12-04T02:02:50.908Z,99.90
2018-12-04T02:05:19.017Z,99.90
2018-12-04T02:07:47.091Z,99.90
2018-12-04T02:10:15.124Z,99.90
2018-12-04T02:12:43.196Z,99.90
2018-12-04T02:15:11.306Z,99.90
2018-12-04T02:17:39.377Z,99.90
2018-12-04T02:20:07.488Z,99.90
2018-12-04T02:22:35.673Z,99.90
2018-12-04T02:25:03.856Z,99.90
2018-12-04T02:27:31.972Z,99.90
2018-12-04T02:30:00.020Z,99.90
2018-12-04T02:32:28.077Z,99.90
2018-12-04T02:34:56.122Z,99.90
2018-12-04T02:37:24.153Z,99.80
2018-12-04T02:39:52.205Z,99.90
2018-12-04T02:42:22.213Z,99.80
2018-12-04T02:44:50.260Z,99.80
2018-12-04T02:47:18.293Z,99.60
2018-12-04T02:49:46.339Z,99.40
2018-12-04T02:52:14.385Z,99.40
2018-12-04T02:54:42.433Z,99.60
2018-12-04T02:57:10.472Z,99.40
2018-12-04T02:59:38.539Z,99.50
2018-12-04T03:02:06.569Z,99.80
2018-12-04T03:04:34.631Z,99.20
2018-12-04T03:07:02.729Z,98.80
2018-12-04T03:09:30.861Z,99.20
2018-12-04T03:11:58.888Z,99.10
2018-12-04T03:14:26.936Z,99.40
2018-12-04T03:16:54.993Z,98.80
2018-12-04T03:19:23.021Z,98.10
2018-12-04T03:21:51.075Z,98.60
2018-12-04T03:24:19.097Z,98.30
2018-12-04T03:26:47.156Z,98.20
2018-12-04T03:29:15.196Z,98.00
2018-12-04T03:31:43.314Z,97.90
2018-12-04T03:34:11.370Z,98.00
2018-12-04T03:36:39.400Z,97.40
2018-12-04T03:39:07.719Z,97.10
2018-12-04T03:41:35.757Z,97.50
2018-12-04T03:44:03.858Z,96.80
2018-12-04T03:46:31.981Z,96.90
2018-12-04T03:49:00.033Z,96.90
2018-12-04T03:51:28.085Z,96.80
2018-12-04T03:53:56.115Z,96.70
2018-12-04T03:56:24.167Z,96.80
2018-12-04T03:58:52.197Z,96.60
2018-12-04T04:01:20.245Z,96.80
2018-12-04T04:03:48.289Z,96.30
2018-12-04T04:06:16.324Z,96.40
2018-12-04T04:08:44.417Z,96.00
2018-12-04T04:11:12.452Z,95.60
2018-12-04T04:13:40.500Z,96.00
2018-12-04T04:16:08.548Z,95.40
2018-12-04T04:18:36.593Z,96.20
2018-12-04T04:21:04.695Z,96.10
2018-12-04T04:23:32.741Z,95.90
2018-12-04T04:26:00.780Z,95.50
2018-12-04T04:28:28.828Z,95.50
2018-12-04T04:30:56.875Z,95.80
2018-12-04T04:33:24.930Z,96.70
2018-12-04T04:35:54.926Z,96.10
2018-12-04T04:38:22.985Z,96.10
2018-12-04T04:40:51.019Z,96.20
2018-12-04T04:43:19.075Z,95.60
2018-12-04T04:45:47.115Z,95.50
2018-12-04T04:48:15.165Z,95.10
2018-12-04T04:50:43.201Z,95.00
2018-12-04T04:53:11.257Z,95.80
2018-12-04T04:55:39.293Z,95.20
2018-12-04T04:58:07.353Z,96.10
2018-12-04T05:00:35.459Z,96.00
2018-12-04T05:03:03.561Z,95.90
2018-12-04T05:05:33.562Z,96.00
2018-12-04T05:08:01.613Z,96.10
2018-12-04T05:10:29.671Z,96.40
2018-12-04T05:12:57.710Z,96.10
2018-12-04T05:15:25.749Z,96.00
2018-12-04T05:17:53.786Z,96.20
2018-12-04T05:20:21.833Z,96.00
2018-12-04T05:22:49.869Z,96.10
2018-12-04T05:25:17.934Z,96.10
2018-12-04T05:27:45.976Z,96.10
2018-12-04T05:30:14.025Z,95.90
2018-12-04T05:32:42.053Z,95.70
2018-12-04T05:35:10.114Z,95.60
2018-12-04T05:37:38.144Z,95.60
2018-12-04T05:40:08.197Z,95.90
2018-12-04T05:42:36.238Z,95.70
2018-12-04T05:45:05.329Z,96.30
2018-12-04T05:47:33.371Z,96.00
2018-12-04T05:50:01.411Z,95.90
2018-12-04T05:52:29.442Z,96.00
2018-12-04T05:54:57.505Z,95.60
2018-12-04T05:57:25.536Z,95.50
2018-12-04T05:59:53.594Z,95.40
2018-12-04T06:02:21.632Z,95.80
2018-12-04T06:04:49.748Z,95.40
2018-12-04T06:07:17.801Z,95.40
2018-12-04T06:09:45.853Z,95.50
2018-12-04T06:12:13.900Z,96.00
2018-12-04T06:14:41.940Z,96.00
2018-12-04T06:17:09.988Z,95.70
2018-12-04T06:19:38.024Z,95.80
2018-12-04T06:22:06.076Z,96.00
2018-12-04T06:24:34.112Z,96.00
2018-12-04T06:27:02.151Z,97.00
2018-12-04T06:29:30.176Z,96.90
2018-12-04T06:31:58.216Z,97.50
2018-12-04T06:34:26.249Z,97.60
2018-12-04T06:36:54.288Z,97.50
2018-12-04T06:39:22.323Z,98.30
2018-12-04T06:41:50.369Z,98.20
2018-12-04T06:44:18.400Z,96.60
2018-12-04T06:46:46.432Z,96.90
2018-12-04T06:49:14.472Z,96.80
2018-12-04T06:51:42.516Z,96.30
2018-12-04T06:54:10.553Z,94.60
2018-12-04T06:56:38.655Z,95.90
2018-12-04T06:59:06.693Z,95.60
2018-12-04T07:01:34.724Z,95.90
2018-12-04T07:04:02.771Z,96.40
2018-12-04T07:06:30.800Z,96.90
2018-12-04T07:08:58.849Z,98.00
2018-12-04T07:11:26.868Z,98.00
2018-12-04T07:13:54.918Z,98.00
2018-12-04T07:16:22.953Z,98.30
2018-12-04T07:18:51.008Z,98.30
2018-12-04T07:21:19.038Z,98.20
2018-12-04T07:23:47.081Z,98.00
2018-12-04T07:26:15.117Z,97.60
2018-12-04T07:28:43.158Z,97.40
2018-12-04T07:31:11.204Z,97.80
2018-12-04T07:33:39.229Z,97.90
2018-12-04T07:36:07.268Z,98.00
2018-12-04T07:38:35.302Z,97.90
2018-12-04T07:41:03.476Z,98.00
2018-12-04T07:43:31.500Z,98.00
2018-12-04T07:45:59.539Z,98.10
2018-12-04T07:48:27.569Z,98.30
2018-12-04T07:50:55.624Z,98.90
2018-12-04T07:53:23.649Z,98.60
2018-12-04T07:55:51.685Z,98.40
2018-12-04T07:58:19.714Z,98.40
2018-12-04T08:00:47.756Z,98.80
2018-12-04T08:03:15.801Z,98.60
2018-12-04T08:05:43.906Z,97.70
2018-12-04T08:08:11.937Z,97.50
2018-12-04T08:10:39.980Z,97.20
2018-12-04T08:13:08.003Z,97.10
2018-12-04T08:15:36.049Z,97.10
2018-12-04T08:18:04.092Z,97.60
2018-12-04T08:20:32.193Z,97.30
2018-12-04T08:23:00.241Z,97.90
2018-12-04T08:25:28.253Z,97.30
2018-12-04T08:27:56.304Z,95.40
2018-12-04T08:30:24.325Z,96.00
2018-12-04T08:32:52.356Z,92.90
2018-12-04T08:35:20.391Z,93.00
2018-12-04T08:37:48.422Z,93.20
2018-12-04T08:40:16.449Z,93.60
2018-12-04T08:42:44.481Z,94.00
2018-12-04T08:45:12.518Z,93.30
2018-12-04T08:47:40.569Z,93.00
2018-12-04T08:50:08.672Z,93.30
2018-12-04T08:52:36.710Z,90.10
2018-12-04T08:55:05.500Z,90.00
2018-12-04T08:57:33.551Z,90.30
2018-12-04T09:00:01.591Z,88.90
2018-12-04T09:02:29.614Z,90.00
2018-12-04T09:04:57.654Z,90.10
2018-12-04T09:07:25.668Z,87.40
2018-12-04T09:09:53.718Z,86.20
2018-12-04T09:12:21.745Z,87.20
2018-12-04T09:14:49.778Z,88.10
2018-12-04T09:17:17.812Z,87.40
2018-12-04T09:19:45.925Z,88.90
2018-12-04T09:22:14.028Z,88.60
2018-12-04T09:24:42.092Z,87.60
2018-12-04T09:27:10.230Z,89.90
2018-12-04T09:29:38.306Z,87.30
2018-12-04T09:32:06.400Z,89.10
2018-12-04T09:34:34.442Z,90.00
2018-12-04T09:37:02.545Z,90.60
2018-12-04T09:39:30.581Z,90.30
2018-12-04T09:42:00.570Z,90.10
2018-12-04T09:44:28.605Z,91.00
2018-12-04T09:46:56.637Z,92.00
2018-12-04T09:49:24.668Z,89.50
2018-12-04T09:51:52.718Z,90.60
2018-12-04T09:54:20.739Z,91.40
2018-12-04T09:56:48.806Z,90.00
2018-12-04T09:59:16.944Z,91.10
2018-12-04T10:01:45.222Z,91.50
2018-12-04T10:04:13.245Z,90.40
2018-12-04T10:06:41.338Z,90.00
2018-12-04T10:09:09.420Z,89.20
2018-12-04T10:11:37.652Z,91.70
2018-12-04T10:14:05.677Z,90.40
2018-12-04T10:16:33.717Z,90.90
2018-12-04T10:19:01.812Z,90.60
2018-12-04T10:21:29.922Z,90.00
2018-12-04T10:23:57.953Z,92.50
2018-12-04T10:26:25.984Z,91.40
2018-12-04T10:28:54.045Z,87.00
2018-12-04T10:31:22.064Z,89.20
2018-12-04T10:33:50.101Z,88.70
2018-12-04T10:36:18.207Z,90.10
2018-12-04T10:38:46.241Z,90.50
2018-12-04T10:41:14.268Z,87.30
2018-12-04T10:43:42.321Z,87.40
2018-12-04T10:46:10.353Z,86.60
2018-12-04T10:48:38.397Z,83.30
2018-12-04T10:51:06.430Z,79.20
2018-12-04T10:53:34.471Z,75.00
2018-12-04T10:56:02.495Z,80.50
2018-12-04T10:58:30.542Z,78.90
2018-12-04T11:00:58.585Z,79.80
2018-12-04T11:03:32.421Z,79.00
2018-12-04T11:06:00.505Z,81.20
2018-12-04T11:08:28.539Z,75.00
2018-12-04T11:10:56.584Z,78.30
2018-12-04T11:13:24.609Z,78.10
2018-12-04T11:15:52.667Z,81.50
2018-12-04T11:18:20.708Z,75.60
2018-12-04T11:20:48.869Z,77.00
2018-12-04T11:23:16.908Z,79.10
2018-12-04T11:25:45.705Z,77.80
2018-12-04T11:28:13.749Z,79.20
2018-12-04T11:30:41.786Z,78.30
2018-12-04T11:33:09.892Z,78.80
2018-12-04T11:35:37.936Z,80.20
2018-12-04T11:38:05.978Z,81.50
2018-12-04T11:40:34.046Z,75.00
2018-12-04T11:43:02.077Z,70.70
2018-12-04T11:45:30.169Z,62.90
2018-12-04T11:47:58.217Z,62.90
2018-12-04T11:50:26.253Z,62.90
2018-12-04T11:52:54.405Z,65.20
2018-12-04T11:55:22.396Z,63.00
2018-12-04T11:57:50.445Z,60.40
2018-12-04T12:00:20.593Z,62.90
2018-12-04T12:02:48.637Z,63.80
2018-12-04T12:05:16.674Z,63.90
2018-12-04T12:07:44.701Z,67.20
2018-12-04T12:10:12.751Z,66.80
2018-12-04T12:12:40.796Z,63.90
2018-12-04T12:15:08.833Z,62.90
2018-12-04T12:17:36.884Z,65.40
2018-12-04T12:20:06.468Z,63.80
2018-12-04T12:22:34.500Z,61.80
2018-12-04T12:25:02.781Z,60.90
2018-12-04T12:27:31.872Z,60.40
2018-12-04T12:29:59.905Z,61.30
2018-12-04T12:32:27.947Z,56.00
2018-12-04T12:34:55.966Z,54.90
2018-12-04T12:37:24.009Z,58.70
2018-12-04T12:39:52.036Z,56.30
2018-12-04T12:42:20.073Z,55.20
2018-12-04T12:44:48.105Z,58.80
2018-12-04T12:47:16.217Z,60.10
2018-12-04T12:49:44.243Z,60.90
2018-12-04T12:52:12.281Z,61.80
2018-12-04T12:54:40.329Z,62.90
2018-12-04T12:57:08.345Z,57.90
2018-12-04T12:59:36.397Z,57.80
2018-12-04T13:02:04.427Z,52.10
2018-12-04T13:04:32.468Z,56.80
2018-12-04T13:07:00.501Z,55.50
2018-12-04T13:09:28.549Z,53.00
2018-12-04T13:11:56.645Z,50.60
2018-12-04T13:14:24.698Z,53.20
2018-12-04T13:16:52.795Z,49.60
2018-12-04T13:19:20.913Z,49.10
2018-12-04T13:21:49.021Z,51.20
2018-12-04T13:24:17.070Z,45.60
2018-12-04T13:26:45.100Z,45.10
2018-12-04T13:29:13.154Z,47.10
2018-12-04T13:31:41.181Z,48.70
2018-12-04T13:34:09.239Z,50.00
2018-12-04T13:36:37.357Z,49.10
2018-12-04T13:39:07.822Z,52.50
2018-12-04T13:41:36.697Z,48.80
2018-12-04T13:44:04.957Z,47.70
2018-12-04T13:46:33.005Z,45.10
2018-12-04T13:49:01.121Z,46.30
2018-12-04T13:51:29.233Z,48.60
2018-12-04T13:53:57.256Z,46.00
2018-12-04T13:56:25.399Z,44.20
2018-12-04T13:58:53.489Z,44.20
2018-12-04T14:01:21.620Z,45.00
2018-12-04T14:03:49.640Z,46.20
2018-12-04T14:06:17.767Z,45.80
2018-12-04T14:08:45.894Z,48.20
2018-12-04T14:11:14.026Z,44.20
2018-12-04T14:13:42.142Z,47.00
2018-12-04T14:16:10.336Z,43.10
2018-12-04T14:18:38.484Z,44.10
2018-12-04T14:21:06.693Z,43.40
2018-12-04T14:23:34.728Z,45.00
2018-12-04T14:26:02.795Z,44.80
2018-12-04T14:28:30.931Z,44.70
2018-12-04T14:30:59.043Z,47.80
2018-12-04T14:33:27.154Z,48.30
2018-12-04T14:35:55.254Z,44.60
2018-12-04T14:38:24.661Z,44.60
2018-12-04T14:40:52.995Z,45.00
2018-12-04T14:43:21.109Z,49.50
2018-12-04T14:45:49.212Z,49.70
2018-12-04T14:48:17.300Z,49.60
2018-12-04T14:50:45.360Z,50.00
2018-12-04T14:53:13.395Z,53.20
2018-12-04T14:55:41.453Z,56.90
2018-12-04T14:58:09.489Z,47.00
2018-12-04T15:00:37.530Z,47.30
2018-12-04T15:03:05.706Z,47.20
2018-12-04T15:05:33.837Z,47.00
2018-12-04T15:08:01.944Z,47.40
2018-12-04T15:10:30.017Z,47.10
2018-12-04T15:12:58.091Z,47.60
2018-12-04T15:15:26.210Z,49.90
2018-12-04T15:17:54.325Z,52.80
2018-12-04T15:20:22.593Z,54.20
2018-12-04T15:22:50.661Z,54.50
2018-12-04T15:25:18.771Z,52.40
2018-12-04T15:27:47.845Z,54.50
2018-12-04T15:30:16.005Z,56.00
2018-12-04T15:32:44.096Z,55.90
2018-12-04T15:35:12.204Z,60.90
2018-12-04T15:37:40.308Z,59.90
2018-12-04T15:40:08.481Z,56.80
2018-12-04T15:42:36.601Z,55.30
2018-12-04T15:45:05.377Z,55.50
2018-12-04T15:47:33.512Z,54.80
2018-12-04T15:50:01.686Z,54.40
2018-12-04T15:52:29.755Z,57.70
2018-12-04T15:54:57.781Z,57.70
2018-12-04T15:57:25.828Z,57.60
2018-12-04T15:59:53.852Z,56.30
2018-12-04T16:02:21.888Z,57.00
2018-12-04T16:04:49.925Z,56.80
2018-12-04T16:07:17.971Z,57.50
2018-12-04T16:09:45.997Z,58.30
2018-12-04T16:12:14.031Z,58.70
2018-12-04T16:14:42.049Z,59.20
2018-12-04T16:17:15.142Z,59.70
2018-12-04T16:19:40.102Z,60.30
2018-12-04T16:22:08.149Z,61.50
2018-12-04T16:24:36.173Z,63.30
2018-12-04T16:27:04.289Z,69.60
2018-12-04T16:29:32.324Z,71.20
2018-12-04T16:32:00.368Z,70.20
2018-12-04T16:34:28.413Z,68.80
2018-12-04T16:36:56.450Z,69.90
2018-12-04T16:39:24.480Z,74.60
2018-12-04T16:41:52.516Z,76.70
2018-12-04T16:44:20.548Z,76.30
2018-12-04T16:46:48.569Z,75.30
2018-12-04T16:49:16.608Z,75.70
2018-12-04T16:51:44.636Z,77.50
2018-12-04T16:54:12.677Z,78.40
2018-12-04T16:56:40.704Z,82.40
2018-12-04T16:59:08.749Z,83.50
2018-12-04T17:01:36.782Z,85.80
2018-12-04T17:04:04.826Z,86.10
2018-12-04T17:06:33.020Z,87.10
2018-12-04T17:09:01.052Z,87.00
2018-12-04T17:11:29.165Z,88.20
2018-12-04T17:13:57.215Z,87.80
2018-12-04T17:16:25.269Z,86.80
2018-12-04T17:18:53.401Z,86.30
2018-12-04T17:21:21.453Z,87.50
2018-12-04T17:23:49.486Z,90.50
2018-12-04T17:26:17.529Z,90.20
2018-12-04T17:28:45.601Z,89.10
2018-12-04T17:31:13.657Z,88.90
2018-12-04T17:33:41.691Z,89.40
2018-12-04T17:36:09.725Z,89.70
2018-12-04T17:38:37.761Z,90.60
2018-12-04T17:41:05.808Z,91.10
2018-12-04T17:43:33.839Z,91.70
2018-12-04T17:46:01.902Z,92.30
2018-12-04T17:48:29.932Z,93.20
2018-12-04T17:50:57.980Z,94.10
2018-12-04T17:53:26.008Z,93.90
2018-12-04T17:55:54.049Z,93.70
2018-12-04T17:58:22.087Z,93.40
2018-12-04T18:00:50.126Z,93.30
2018-12-04T18:03:18.156Z,93.90
2018-12-04T18:05:46.199Z,94.80
2018-12-04T18:08:14.215Z,95.00
2018-12-04T18:10:42.297Z,95.60
2018-12-04T18:13:10.333Z,95.60
2018-12-04T18:15:38.361Z,95.60
2018-12-04T18:18:06.400Z,95.60
2018-12-04T18:20:34.429Z,95.60
2018-12-04T18:23:02.536Z,95.50
2018-12-04T18:25:30.567Z,95.80
2018-12-04T18:27:58.603Z,96.30
2018-12-04T18:30:26.638Z,96.10
2018-12-04T18:32:54.682Z,95.80
2018-12-04T18:35:22.797Z,95.60
2018-12-04T18:37:50.845Z,95.60
2018-12-04T18:40:18.939Z,96.00
2018-12-04T18:42:46.981Z,96.30
2018-12-04T18:45:15.021Z,96.30
2018-12-04T18:47:43.060Z,96.30
2018-12-04T18:50:11.234Z,96.70
2018-12-04T18:52:40.078Z,97.10
2018-12-04T18:55:08.229Z,97.30
2018-12-04T18:57:36.256Z,97.30
2018-12-04T19:00:06.979Z,97.20
2018-12-04T19:02:35.939Z,97.00
2018-12-04T19:05:04.877Z,97.10
2018-12-04T19:07:32.921Z,97.10
2018-12-04T19:10:00.959Z,97.10
2018-12-04T19:12:29.019Z,97.40
2018-12-04T19:14:57.104Z,97.20
2018-12-04T19:17:25.153Z,96.70
2018-12-04T19:19:53.197Z,96.70
2018-12-04T19:22:21.242Z,96.60
2018-12-04T19:24:49.269Z,96.90
2018-12-04T19:27:17.404Z,97.00
2018-12-04T19:29:45.421Z,97.40
2018-12-04T19:32:13.479Z,97.70
2018-12-04T19:34:41.515Z,99.90
2018-12-04T19:37:09.558Z,99.90
2018-12-04T19:39:37.571Z,99.30
2018-12-04T19:42:05.625Z,98.60
2018-12-04T19:44:35.149Z,97.40
2018-12-04T19:47:03.442Z,97.20
2018-12-04T19:49:31.490Z,97.10
2018-12-04T19:51:59.523Z,97.60
2018-12-04T19:54:27.561Z,98.00
2018-12-04T19:56:55.601Z,97.90
2018-12-04T19:59:23.621Z,97.60
2018-12-04T20:01:51.664Z,97.50
2018-12-04T20:04:19.689Z,97.60
2018-12-04T20:06:47.734Z,97.90
2018-12-04T20:09:16.864Z,98.10
2018-12-04T20:11:44.993Z,98.20
2018-12-04T20:14:13.013Z,98.00
2018-12-04T20:16:41.054Z,98.30
2018-12-04T20:19:09.085Z,98.40
2018-12-04T20:21:37.121Z,98.40
2018-12-04T20:24:05.165Z,97.90
2018-12-04T20:26:33.196Z,97.70
2018-12-04T20:29:01.277Z,97.70
2018-12-04T20:31:29.405Z,97.50
2018-12-04T20:33:57.430Z,97.70
2018-12-04T20:36:25.466Z,97.80
2018-12-04T20:38:53.778Z,98.00
2018-12-04T20:41:21.806Z,97.80
2018-12-04T20:43:49.858Z,97.40
2018-12-04T20:46:18.209Z,97.30
2018-12-04T20:48:46.400Z,98.00
2018-12-04T20:51:14.432Z,97.90
2018-12-04T20:53:42.462Z,98.30
2018-12-04T20:56:10.517Z,98.20
2018-12-04T20:58:38.562Z,98.20
2018-12-04T21:01:06.588Z,97.90
2018-12-04T21:03:34.665Z,97.70
2018-12-04T21:06:02.696Z,98.10
2018-12-04T21:08:30.730Z,98.10
2018-12-04T21:10:58.760Z,98.20
2018-12-04T21:13:26.830Z,98.20
2018-12-04T21:15:54.888Z,98.10
2018-12-04T21:18:22.956Z,98.10
2018-12-04T21:20:50.981Z,98.40
2018-12-04T21:23:19.024Z,98.50
2018-12-04T21:25:47.062Z,98.50
2018-12-04T21:28:20.918Z,98.60
2018-12-04T21:30:54.817Z,98.90
2018-12-04T21:33:28.517Z,98.80
2018-12-04T21:36:02.188Z,98.90
2018-12-04T21:38:35.911Z,99.10
2018-12-04T21:41:06.074Z,99.10
2018-12-04T21:43:39.973Z,99.10
2018-12-04T21:46:13.653Z,99.00
2018-12-04T21:48:41.720Z,98.90
2018-12-04T21:51:10.710Z,98.70
2018-12-04T21:53:38.800Z,98.30
2018-12-04T21:56:06.848Z,98.20
2018-12-04T21:58:34.877Z,98.20
2018-12-04T22:01:02.993Z,97.60
2018-12-04T22:03:31.017Z,97.30
2018-12-04T22:05:59.138Z,97.30
2018-12-04T22:08:27.161Z,97.20
2018-12-04T22:10:55.209Z,97.00
2018-12-04T22:13:23.228Z,97.10
2018-12-04T22:15:51.294Z,97.20
2018-12-04T22:18:19.325Z,97.50
2018-12-04T22:20:47.431Z,98.00
2018-12-04T22:23:15.492Z,98.00
2018-12-04T22:25:43.523Z,98.50
2018-12-04T22:28:11.560Z,98.50
2018-12-04T22:30:39.584Z,98.60
2018-12-04T22:33:07.649Z,98.60
2018-12-04T22:35:35.685Z,98.60
2018-12-04T22:38:03.727Z,98.40
2018-12-04T22:40:32.087Z,98.10
2018-12-04T22:43:00.142Z,98.10
2018-12-04T22:45:28.158Z,97.80
2018-12-04T22:47:56.197Z,97.30
2018-12-04T22:50:24.462Z,97.10
2018-12-04T22:52:52.507Z,97.00
2018-12-04T22:55:20.535Z,97.00
2018-12-04T22:57:48.640Z,96.80
2018-12-04T23:00:21.393Z,96.90
2018-12-04T23:02:49.431Z,97.10
2018-12-04T23:05:17.474Z,97.00
2018-12-04T23:07:45.606Z,96.90
2018-12-04T23:10:13.642Z,96.90
2018-12-04T23:12:41.677Z,97.30
2018-12-04T23:15:09.989Z,97.40
2018-12-04T23:17:38.020Z,97.60
2018-12-04T23:20:06.132Z,97.70
2018-12-04T23:22:34.160Z,97.90
2018-12-04T23:25:02.209Z,98.00
2018-12-04T23:27:30.228Z,98.00
2018-12-04T23:29:58.272Z,97.90
2018-12-04T23:32:26.305Z,97.90
2018-12-04T23:34:54.353Z,97.90
2018-12-04T23:37:22.471Z,97.90
2018-12-04T23:39:50.508Z,98.00
2018-12-04T23:42:18.536Z,97.90
2018-12-04T23:44:46.573Z,97.80
2018-12-04T23:47:14.605Z,97.90
2018-12-04T23:49:42.640Z,97.90
2018-12-04T23:52:10.677Z,97.90
2018-12-04T23:54:38.697Z,97.90
2018-12-04T23:57:06.742Z,97.90
2018-12-04T23:59:34.761Z,97.90
